sensor_id;sensor_type;location;lat;lon;timestamp;P1;durP1;ratioP1;P2;durP2;ratioP2
54805;SDS011;62866;55.776;37.496;2023-04-25T00:01:35;11.45;;;3.60;;
54805;SDS011;62866;55.776;37.496;2023-04-25T00:04:02;8.05;;;3.90;;
54805;SDS011;62866;55.776;37.496;2023-04-25T00:06:28;7.22;;;3.72;;
54805;SDS011;62866;55.776;37.496;2023-04-25T00:08:54;6.43;;;3.97;;
54805;SDS011;62866;55.776;37.496;2023-04-25T00:11:21;14.00;;;4.53;;
54805;SDS011;62866;55.776;37.496;2023-04-25T00:13:47;7.25;;;3.83;;
54805;SDS011;62866;55.776;37.496;2023-04-25T00:16:14;11.85;;;4.20;;
54805;SDS011;62866;55.776;37.496;2023-04-25T00:18:41;10.80;;;3.40;;
54805;SDS011;62866;55.776;37.496;2023-04-25T00:21:07;4.97;;;3.05;;
54805;SDS011;62866;55.776;37.496;2023-04-25T00:23:32;11.20;;;4.20;;
54805;SDS011;62866;55.776;37.496;2023-04-25T00:26:00;6.35;;;4.03;;
54805;SDS011;62866;55.776;37.496;2023-04-25T00:28:26;7.93;;;3.83;;
54805;SDS011;62866;55.776;37.496;2023-04-25T00:30:51;7.47;;;3.72;;
54805;SDS011;62866;55.776;37.496;2023-04-25T00:33:17;5.72;;;3.45;;
54805;SDS011;62866;55.776;37.496;2023-04-25T00:35:42;7.90;;;3.92;;
54805;SDS011;62866;55.776;37.496;2023-04-25T00:38:08;9.07;;;3.50;;
54805;SDS011;62866;55.776;37.496;2023-04-25T00:40:34;8.02;;;3.38;;
54805;SDS011;62866;55.776;37.496;2023-04-25T00:43:00;6.00;;;2.72;;
54805;SDS011;62866;55.776;37.496;2023-04-25T00:45:28;6.00;;;3.22;;
54805;SDS011;62866;55.776;37.496;2023-04-25T00:47:55;8.80;;;3.60;;
54805;SDS011;62866;55.776;37.496;2023-04-25T00:50:21;4.85;;;3.50;;
54805;SDS011;62866;55.776;37.496;2023-04-25T00:52:47;5.95;;;3.33;;
54805;SDS011;62866;55.776;37.496;2023-04-25T00:55:13;5.00;;;3.50;;
54805;SDS011;62866;55.776;37.496;2023-04-25T00:57:38;7.10;;;3.65;;
54805;SDS011;62866;55.776;37.496;2023-04-25T01:00:05;4.65;;;3.22;;
54805;SDS011;62866;55.776;37.496;2023-04-25T01:02:35;4.20;;;2.78;;
54805;SDS011;62866;55.776;37.496;2023-04-25T01:05:01;8.43;;;3.28;;
54805;SDS011;62866;55.776;37.496;2023-04-25T01:07:27;8.60;;;3.45;;
54805;SDS011;62866;55.776;37.496;2023-04-25T01:09:53;8.95;;;3.75;;
54805;SDS011;62866;55.776;37.496;2023-04-25T01:12:18;5.93;;;3.08;;
54805;SDS011;62866;55.776;37.496;2023-04-25T01:14:44;5.82;;;4.00;;
54805;SDS011;62866;55.776;37.496;2023-04-25T01:17:11;6.70;;;3.25;;
54805;SDS011;62866;55.776;37.496;2023-04-25T01:19:37;7.20;;;3.50;;
54805;SDS011;62866;55.776;37.496;2023-04-25T01:22:03;12.32;;;4.05;;
54805;SDS011;62866;55.776;37.496;2023-04-25T01:24:29;8.73;;;4.00;;
54805;SDS011;62866;55.776;37.496;2023-04-25T01:26:56;7.95;;;3.63;;
54805;SDS011;62866;55.776;37.496;2023-04-25T01:29:23;8.40;;;3.45;;
54805;SDS011;62866;55.776;37.496;2023-04-25T01:31:49;5.60;;;3.47;;
54805;SDS011;62866;55.776;37.496;2023-04-25T01:34:17;7.95;;;2.67;;
54805;SDS011;62866;55.776;37.496;2023-04-25T01:36:42;7.07;;;3.38;;
54805;SDS011;62866;55.776;37.496;2023-04-25T01:39:08;6.28;;;3.22;;
54805;SDS011;62866;55.776;37.496;2023-04-25T01:41:34;7.32;;;3.63;;
54805;SDS011;62866;55.776;37.496;2023-04-25T01:44:00;7.00;;;3.25;;
54805;SDS011;62866;55.776;37.496;2023-04-25T01:46:26;5.95;;;3.63;;
54805;SDS011;62866;55.776;37.496;2023-04-25T01:48:53;7.30;;;3.67;;
54805;SDS011;62866;55.776;37.496;2023-04-25T01:51:18;6.13;;;3.17;;
54805;SDS011;62866;55.776;37.496;2023-04-25T01:53:44;7.00;;;3.05;;
54805;SDS011;62866;55.776;37.496;2023-04-25T01:56:10;11.00;;;4.15;;
54805;SDS011;62866;55.776;37.496;2023-04-25T01:58:35;5.68;;;3.58;;
54805;SDS011;62866;55.776;37.496;2023-04-25T02:01:01;10.90;;;3.40;;
54805;SDS011;62866;55.776;37.496;2023-04-25T02:03:26;8.18;;;3.65;;
54805;SDS011;62866;55.776;37.496;2023-04-25T02:05:52;5.93;;;3.03;;
54805;SDS011;62866;55.776;37.496;2023-04-25T02:08:18;7.43;;;4.35;;
54805;SDS011;62866;55.776;37.496;2023-04-25T02:10:43;6.93;;;3.90;;
54805;SDS011;62866;55.776;37.496;2023-04-25T02:13:09;6.47;;;3.83;;
54805;SDS011;62866;55.776;37.496;2023-04-25T02:15:35;8.05;;;3.72;;
54805;SDS011;62866;55.776;37.496;2023-04-25T02:18:01;7.20;;;3.55;;
54805;SDS011;62866;55.776;37.496;2023-04-25T02:20:27;5.78;;;3.17;;
54805;SDS011;62866;55.776;37.496;2023-04-25T02:22:53;5.47;;;3.20;;
54805;SDS011;62866;55.776;37.496;2023-04-25T02:25:19;5.22;;;3.05;;
54805;SDS011;62866;55.776;37.496;2023-04-25T02:27:46;7.22;;;3.88;;
54805;SDS011;62866;55.776;37.496;2023-04-25T02:30:12;7.47;;;3.15;;
54805;SDS011;62866;55.776;37.496;2023-04-25T02:32:38;7.97;;;3.83;;
54805;SDS011;62866;55.776;37.496;2023-04-25T02:35:04;7.07;;;4.10;;
54805;SDS011;62866;55.776;37.496;2023-04-25T02:37:31;8.18;;;3.50;;
54805;SDS011;62866;55.776;37.496;2023-04-25T02:39:57;5.40;;;3.00;;
54805;SDS011;62866;55.776;37.496;2023-04-25T02:42:23;9.02;;;3.70;;
54805;SDS011;62866;55.776;37.496;2023-04-25T02:44:49;6.28;;;3.55;;
54805;SDS011;62866;55.776;37.496;2023-04-25T02:47:14;7.25;;;2.75;;
54805;SDS011;62866;55.776;37.496;2023-04-25T02:49:40;6.45;;;3.08;;
54805;SDS011;62866;55.776;37.496;2023-04-25T02:52:05;11.10;;;3.08;;
54805;SDS011;62866;55.776;37.496;2023-04-25T02:54:31;6.47;;;3.13;;
54805;SDS011;62866;55.776;37.496;2023-04-25T02:56:56;10.07;;;3.30;;
54805;SDS011;62866;55.776;37.496;2023-04-25T02:59:22;5.95;;;3.70;;
54805;SDS011;62866;55.776;37.496;2023-04-25T03:01:48;5.28;;;3.40;;
54805;SDS011;62866;55.776;37.496;2023-04-25T03:04:13;5.63;;;3.58;;
54805;SDS011;62866;55.776;37.496;2023-04-25T03:06:39;26.70;;;4.47;;
54805;SDS011;62866;55.776;37.496;2023-04-25T03:09:04;10.00;;;4.32;;
54805;SDS011;62866;55.776;37.496;2023-04-25T03:11:30;5.57;;;3.38;;
54805;SDS011;62866;55.776;37.496;2023-04-25T03:13:56;5.55;;;3.10;;
54805;SDS011;62866;55.776;37.496;2023-04-25T03:16:21;6.43;;;3.50;;
54805;SDS011;62866;55.776;37.496;2023-04-25T03:18:47;8.57;;;3.20;;
54805;SDS011;62866;55.776;37.496;2023-04-25T03:21:14;6.40;;;3.05;;
54805;SDS011;62866;55.776;37.496;2023-04-25T03:23:40;7.30;;;3.70;;
54805;SDS011;62866;55.776;37.496;2023-04-25T03:26:05;5.78;;;2.78;;
54805;SDS011;62866;55.776;37.496;2023-04-25T03:28:31;5.25;;;2.72;;
54805;SDS011;62866;55.776;37.496;2023-04-25T03:30:57;4.65;;;2.35;;
54805;SDS011;62866;55.776;37.496;2023-04-25T03:33:22;5.68;;;3.10;;
54805;SDS011;62866;55.776;37.496;2023-04-25T03:35:48;4.38;;;2.90;;
54805;SDS011;62866;55.776;37.496;2023-04-25T03:38:14;9.10;;;4.57;;
54805;SDS011;62866;55.776;37.496;2023-04-25T03:40:40;7.60;;;3.55;;
54805;SDS011;62866;55.776;37.496;2023-04-25T03:43:06;13.65;;;3.38;;
54805;SDS011;62866;55.776;37.496;2023-04-25T03:45:32;14.27;;;3.72;;
54805;SDS011;62866;55.776;37.496;2023-04-25T03:47:57;5.57;;;3.50;;
54805;SDS011;62866;55.776;37.496;2023-04-25T03:50:23;8.27;;;4.18;;
54805;SDS011;62866;55.776;37.496;2023-04-25T03:52:48;6.80;;;3.30;;
54805;SDS011;62866;55.776;37.496;2023-04-25T03:55:15;7.40;;;3.58;;
54805;SDS011;62866;55.776;37.496;2023-04-25T03:57:40;9.55;;;3.63;;
54805;SDS011;62866;55.776;37.496;2023-04-25T04:00:06;6.78;;;4.50;;
54805;SDS011;62866;55.776;37.496;2023-04-25T04:02:35;9.45;;;4.95;;
54805;SDS011;62866;55.776;37.496;2023-04-25T04:05:02;8.10;;;3.72;;
54805;SDS011;62866;55.776;37.496;2023-04-25T04:07:29;10.23;;;3.55;;
54805;SDS011;62866;55.776;37.496;2023-04-25T04:09:54;6.78;;;3.88;;
54805;SDS011;62866;55.776;37.496;2023-04-25T04:12:20;7.97;;;4.18;;
54805;SDS011;62866;55.776;37.496;2023-04-25T04:14:45;9.93;;;4.90;;
54805;SDS011;62866;55.776;37.496;2023-04-25T04:17:11;8.15;;;4.32;;
54805;SDS011;62866;55.776;37.496;2023-04-25T04:19:36;9.65;;;3.83;;
54805;SDS011;62866;55.776;37.496;2023-04-25T04:22:02;8.43;;;3.80;;
54805;SDS011;62866;55.776;37.496;2023-04-25T04:24:28;9.55;;;4.88;;
54805;SDS011;62866;55.776;37.496;2023-04-25T04:26:54;11.40;;;5.63;;
54805;SDS011;62866;55.776;37.496;2023-04-25T04:29:20;8.25;;;5.63;;
54805;SDS011;62866;55.776;37.496;2023-04-25T04:31:48;18.23;;;5.30;;
54805;SDS011;62866;55.776;37.496;2023-04-25T04:34:15;9.88;;;5.15;;
54805;SDS011;62866;55.776;37.496;2023-04-25T04:36:41;9.70;;;4.30;;
54805;SDS011;62866;55.776;37.496;2023-04-25T04:39:07;9.32;;;4.80;;
54805;SDS011;62866;55.776;37.496;2023-04-25T04:41:34;12.90;;;4.85;;
54805;SDS011;62866;55.776;37.496;2023-04-25T04:44:00;8.35;;;3.88;;
54805;SDS011;62866;55.776;37.496;2023-04-25T04:46:26;10.80;;;4.55;;
54805;SDS011;62866;55.776;37.496;2023-04-25T04:48:53;11.88;;;5.60;;
54805;SDS011;62866;55.776;37.496;2023-04-25T04:51:18;12.40;;;5.50;;
54805;SDS011;62866;55.776;37.496;2023-04-25T04:53:45;9.20;;;4.55;;
54805;SDS011;62866;55.776;37.496;2023-04-25T04:56:11;10.13;;;5.47;;
54805;SDS011;62866;55.776;37.496;2023-04-25T04:58:36;10.68;;;5.93;;
54805;SDS011;62866;55.776;37.496;2023-04-25T05:01:02;14.57;;;7.88;;
54805;SDS011;62866;55.776;37.496;2023-04-25T05:03:28;13.35;;;6.57;;
54805;SDS011;62866;55.776;37.496;2023-04-25T05:05:53;12.13;;;6.85;;
54805;SDS011;62866;55.776;37.496;2023-04-25T05:08:19;14.50;;;8.27;;
54805;SDS011;62866;55.776;37.496;2023-04-25T05:10:45;8.88;;;5.05;;
54805;SDS011;62866;55.776;37.496;2023-04-25T05:13:10;10.25;;;6.55;;
54805;SDS011;62866;55.776;37.496;2023-04-25T05:15:36;21.50;;;7.90;;
54805;SDS011;62866;55.776;37.496;2023-04-25T05:18:01;10.60;;;6.43;;
54805;SDS011;62866;55.776;37.496;2023-04-25T05:20:27;13.98;;;8.00;;
54805;SDS011;62866;55.776;37.496;2023-04-25T05:22:52;11.82;;;6.88;;
54805;SDS011;62866;55.776;37.496;2023-04-25T05:25:18;8.88;;;6.03;;
54805;SDS011;62866;55.776;37.496;2023-04-25T05:27:43;9.18;;;5.80;;
54805;SDS011;62866;55.776;37.496;2023-04-25T05:30:09;13.32;;;5.55;;
54805;SDS011;62866;55.776;37.496;2023-04-25T05:32:35;10.55;;;6.10;;
54805;SDS011;62866;55.776;37.496;2023-04-25T05:35:01;12.00;;;6.38;;
54805;SDS011;62866;55.776;37.496;2023-04-25T05:37:27;9.38;;;6.07;;
54805;SDS011;62866;55.776;37.496;2023-04-25T05:39:53;10.48;;;5.90;;
54805;SDS011;62866;55.776;37.496;2023-04-25T05:42:18;11.00;;;5.93;;
54805;SDS011;62866;55.776;37.496;2023-04-25T05:44:44;9.00;;;6.25;;
54805;SDS011;62866;55.776;37.496;2023-04-25T05:47:10;10.40;;;5.68;;
54805;SDS011;62866;55.776;37.496;2023-04-25T05:49:35;5.82;;;4.40;;
54805;SDS011;62866;55.776;37.496;2023-04-25T05:52:01;9.82;;;4.82;;
54805;SDS011;62866;55.776;37.496;2023-04-25T05:54:26;7.60;;;5.00;;
54805;SDS011;62866;55.776;37.496;2023-04-25T05:56:52;17.95;;;5.65;;
54805;SDS011;62866;55.776;37.496;2023-04-25T05:59:17;7.65;;;4.88;;
54805;SDS011;62866;55.776;37.496;2023-04-25T06:01:43;9.40;;;5.47;;
54805;SDS011;62866;55.776;37.496;2023-04-25T06:04:08;6.43;;;4.50;;
54805;SDS011;62866;55.776;37.496;2023-04-25T06:06:34;8.85;;;5.20;;
54805;SDS011;62866;55.776;37.496;2023-04-25T06:08:59;5.88;;;4.57;;
54805;SDS011;62866;55.776;37.496;2023-04-25T06:11:25;5.60;;;4.30;;
54805;SDS011;62866;55.776;37.496;2023-04-25T06:13:51;6.72;;;5.05;;
54805;SDS011;62866;55.776;37.496;2023-04-25T06:16:16;7.50;;;5.00;;
54805;SDS011;62866;55.776;37.496;2023-04-25T06:18:42;11.88;;;5.38;;
54805;SDS011;62866;55.776;37.496;2023-04-25T06:21:07;14.77;;;5.93;;
54805;SDS011;62866;55.776;37.496;2023-04-25T06:23:35;11.55;;;5.40;;
54805;SDS011;62866;55.776;37.496;2023-04-25T06:26:00;12.55;;;4.80;;
54805;SDS011;62866;55.776;37.496;2023-04-25T06:28:26;10.13;;;5.57;;
54805;SDS011;62866;55.776;37.496;2023-04-25T06:30:51;8.80;;;4.80;;
54805;SDS011;62866;55.776;37.496;2023-04-25T06:33:17;9.80;;;4.70;;
54805;SDS011;62866;55.776;37.496;2023-04-25T06:35:43;10.18;;;4.70;;
54805;SDS011;62866;55.776;37.496;2023-04-25T06:38:08;6.80;;;3.85;;
54805;SDS011;62866;55.776;37.496;2023-04-25T06:40:34;8.50;;;4.30;;
54805;SDS011;62866;55.776;37.496;2023-04-25T06:42:59;13.88;;;3.90;;
54805;SDS011;62866;55.776;37.496;2023-04-25T06:45:25;8.95;;;5.05;;
54805;SDS011;62866;55.776;37.496;2023-04-25T06:47:50;8.57;;;4.55;;
54805;SDS011;62866;55.776;37.496;2023-04-25T06:50:16;7.57;;;4.10;;
54805;SDS011;62866;55.776;37.496;2023-04-25T06:52:41;11.07;;;5.03;;
54805;SDS011;62866;55.776;37.496;2023-04-25T06:55:07;11.23;;;5.63;;
54805;SDS011;62866;55.776;37.496;2023-04-25T06:57:33;12.57;;;5.43;;
54805;SDS011;62866;55.776;37.496;2023-04-25T06:59:58;11.27;;;4.72;;
54805;SDS011;62866;55.776;37.496;2023-04-25T07:02:24;7.28;;;4.32;;
54805;SDS011;62866;55.776;37.496;2023-04-25T07:04:49;6.53;;;3.90;;
54805;SDS011;62866;55.776;37.496;2023-04-25T07:07:15;11.30;;;4.50;;
54805;SDS011;62866;55.776;37.496;2023-04-25T07:09:42;10.57;;;5.40;;
54805;SDS011;62866;55.776;37.496;2023-04-25T07:12:07;6.78;;;4.13;;
54805;SDS011;62866;55.776;37.496;2023-04-25T07:14:33;10.05;;;4.82;;
54805;SDS011;62866;55.776;37.496;2023-04-25T07:16:58;5.32;;;3.70;;
54805;SDS011;62866;55.776;37.496;2023-04-25T07:19:24;7.70;;;4.70;;
54805;SDS011;62866;55.776;37.496;2023-04-25T07:21:51;6.90;;;3.78;;
54805;SDS011;62866;55.776;37.496;2023-04-25T07:24:17;7.72;;;4.10;;
54805;SDS011;62866;55.776;37.496;2023-04-25T07:26:43;6.55;;;3.78;;
54805;SDS011;62866;55.776;37.496;2023-04-25T07:29:09;7.13;;;3.45;;
54805;SDS011;62866;55.776;37.496;2023-04-25T07:31:34;7.05;;;3.65;;
54805;SDS011;62866;55.776;37.496;2023-04-25T07:34:00;5.75;;;2.85;;
54805;SDS011;62866;55.776;37.496;2023-04-25T07:36:26;4.70;;;3.17;;
54805;SDS011;62866;55.776;37.496;2023-04-25T07:38:52;6.40;;;3.65;;
54805;SDS011;62866;55.776;37.496;2023-04-25T07:41:17;4.65;;;2.88;;
54805;SDS011;62866;55.776;37.496;2023-04-25T07:43:43;8.38;;;4.05;;
54805;SDS011;62866;55.776;37.496;2023-04-25T07:46:08;7.25;;;4.07;;
54805;SDS011;62866;55.776;37.496;2023-04-25T07:48:34;7.55;;;4.32;;
54805;SDS011;62866;55.776;37.496;2023-04-25T07:51:00;6.70;;;4.97;;
54805;SDS011;62866;55.776;37.496;2023-04-25T07:53:25;6.45;;;4.63;;
54805;SDS011;62866;55.776;37.496;2023-04-25T07:55:51;8.07;;;4.82;;
54805;SDS011;62866;55.776;37.496;2023-04-25T07:58:16;8.65;;;4.78;;
54805;SDS011;62866;55.776;37.496;2023-04-25T08:00:46;7.00;;;3.15;;
54805;SDS011;62866;55.776;37.496;2023-04-25T08:03:12;7.97;;;3.83;;
54805;SDS011;62866;55.776;37.496;2023-04-25T08:05:37;10.80;;;3.92;;
54805;SDS011;62866;55.776;37.496;2023-04-25T08:08:03;11.18;;;5.35;;
54805;SDS011;62866;55.776;37.496;2023-04-25T08:10:31;8.35;;;3.70;;
54805;SDS011;62866;55.776;37.496;2023-04-25T08:12:57;8.82;;;4.03;;
54805;SDS011;62866;55.776;37.496;2023-04-25T08:15:24;7.43;;;3.38;;
54805;SDS011;62866;55.776;37.496;2023-04-25T08:17:50;5.25;;;4.07;;
54805;SDS011;62866;55.776;37.496;2023-04-25T08:20:16;6.13;;;3.50;;
54805;SDS011;62866;55.776;37.496;2023-04-25T08:22:41;10.60;;;4.47;;
54805;SDS011;62866;55.776;37.496;2023-04-25T08:25:07;5.88;;;3.53;;
54805;SDS011;62866;55.776;37.496;2023-04-25T08:27:33;5.38;;;4.53;;
54805;SDS011;62866;55.776;37.496;2023-04-25T08:29:59;11.73;;;4.53;;
54805;SDS011;62866;55.776;37.496;2023-04-25T08:32:24;5.97;;;3.85;;
54805;SDS011;62866;55.776;37.496;2023-04-25T08:34:50;9.05;;;6.35;;
54805;SDS011;62866;55.776;37.496;2023-04-25T08:37:19;8.10;;;3.40;;
54805;SDS011;62866;55.776;37.496;2023-04-25T08:39:45;6.28;;;3.42;;
54805;SDS011;62866;55.776;37.496;2023-04-25T08:42:13;7.90;;;4.15;;
54805;SDS011;62866;55.776;37.496;2023-04-25T08:44:40;8.23;;;4.15;;
54805;SDS011;62866;55.776;37.496;2023-04-25T08:47:06;5.15;;;3.13;;
54805;SDS011;62866;55.776;37.496;2023-04-25T08:49:32;5.63;;;2.95;;
54805;SDS011;62866;55.776;37.496;2023-04-25T08:51:59;7.15;;;4.55;;
54805;SDS011;62866;55.776;37.496;2023-04-25T08:54:26;10.27;;;3.85;;
54805;SDS011;62866;55.776;37.496;2023-04-25T08:56:54;5.72;;;2.45;;
54805;SDS011;62866;55.776;37.496;2023-04-25T08:59:22;7.60;;;4.13;;
54805;SDS011;62866;55.776;37.496;2023-04-25T09:01:49;29.92;;;6.30;;
54805;SDS011;62866;55.776;37.496;2023-04-25T09:04:15;6.82;;;4.20;;
54805;SDS011;62866;55.776;37.496;2023-04-25T09:09:50;6.45;;;2.70;;
54805;SDS011;62866;55.776;37.496;2023-04-25T09:12:19;3.95;;;2.85;;
54805;SDS011;62866;55.776;37.496;2023-04-25T09:15:00;8.93;;;3.92;;
54805;SDS011;62866;55.776;37.496;2023-04-25T09:17:31;5.28;;;2.75;;
54805;SDS011;62866;55.776;37.496;2023-04-25T09:20:05;6.28;;;3.08;;
54805;SDS011;62866;55.776;37.496;2023-04-25T09:22:35;5.43;;;2.47;;
54805;SDS011;62866;55.776;37.496;2023-04-25T09:25:02;4.70;;;3.17;;
54805;SDS011;62866;55.776;37.496;2023-04-25T09:27:29;8.18;;;3.45;;
54805;SDS011;62866;55.776;37.496;2023-04-25T09:29:58;3.38;;;2.72;;
54805;SDS011;62866;55.776;37.496;2023-04-25T09:32:27;5.07;;;2.80;;
54805;SDS011;62866;55.776;37.496;2023-04-25T09:34:56;11.23;;;3.40;;
54805;SDS011;62866;55.776;37.496;2023-04-25T09:39:50;4.75;;;2.65;;
54805;SDS011;62866;55.776;37.496;2023-04-25T09:42:21;5.15;;;2.63;;
54805;SDS011;62866;55.776;37.496;2023-04-25T09:44:48;3.97;;;2.05;;
54805;SDS011;62866;55.776;37.496;2023-04-25T09:47:17;7.72;;;3.45;;
54805;SDS011;62866;55.776;37.496;2023-04-25T09:49:46;3.88;;;2.78;;
54805;SDS011;62866;55.776;37.496;2023-04-25T09:52:16;5.55;;;1.63;;
54805;SDS011;62866;55.776;37.496;2023-04-25T09:54:46;5.72;;;2.50;;
54805;SDS011;62866;55.776;37.496;2023-04-25T09:57:13;4.88;;;2.67;;
54805;SDS011;62866;55.776;37.496;2023-04-25T09:59:47;11.95;;;3.15;;
54805;SDS011;62866;55.776;37.496;2023-04-25T10:02:18;5.43;;;3.30;;
54805;SDS011;62866;55.776;37.496;2023-04-25T10:04:50;6.93;;;3.67;;
54805;SDS011;62866;55.776;37.496;2023-04-25T10:07:20;6.85;;;2.35;;
54805;SDS011;62866;55.776;37.496;2023-04-25T10:09:50;10.93;;;3.13;;
54805;SDS011;62866;55.776;37.496;2023-04-25T10:12:24;3.92;;;2.50;;
54805;SDS011;62866;55.776;37.496;2023-04-25T10:14:50;8.10;;;4.18;;
54805;SDS011;62866;55.776;37.496;2023-04-25T10:17:17;6.00;;;2.97;;
54805;SDS011;62866;55.776;37.496;2023-04-25T10:19:45;5.15;;;3.20;;
54805;SDS011;62866;55.776;37.496;2023-04-25T10:22:20;5.30;;;3.58;;
54805;SDS011;62866;55.776;37.496;2023-04-25T10:24:54;7.00;;;3.47;;
54805;SDS011;62866;55.776;37.496;2023-04-25T10:27:21;7.22;;;3.38;;
54805;SDS011;62866;55.776;37.496;2023-04-25T10:29:59;8.40;;;3.30;;
54805;SDS011;62866;55.776;37.496;2023-04-25T10:32:37;8.77;;;3.10;;
54805;SDS011;62866;55.776;37.496;2023-04-25T10:35:10;8.15;;;3.28;;
54805;SDS011;62866;55.776;37.496;2023-04-25T10:40:35;15.57;;;3.17;;
54805;SDS011;62866;55.776;37.496;2023-04-25T10:43:35;6.00;;;2.28;;
54805;SDS011;62866;55.776;37.496;2023-04-25T10:45:55;2.67;;;1.23;;
54805;SDS011;62866;55.776;37.496;2023-04-25T10:48:25;5.63;;;2.78;;
54805;SDS011;62866;55.776;37.496;2023-04-25T10:51:06;2.35;;;1.60;;
54805;SDS011;62866;55.776;37.496;2023-04-25T10:53:43;4.20;;;2.28;;
54805;SDS011;62866;55.776;37.496;2023-04-25T10:56:17;5.30;;;1.95;;
54805;SDS011;62866;55.776;37.496;2023-04-25T10:58:44;7.78;;;2.63;;
54805;SDS011;62866;55.776;37.496;2023-04-25T11:01:12;5.43;;;2.22;;
54805;SDS011;62866;55.776;37.496;2023-04-25T11:03:44;3.25;;;2.33;;
54805;SDS011;62866;55.776;37.496;2023-04-25T11:06:34;5.38;;;2.20;;
54805;SDS011;62866;55.776;37.496;2023-04-25T11:09:02;3.65;;;1.65;;
54805;SDS011;62866;55.776;37.496;2023-04-25T11:11:28;5.20;;;2.45;;
54805;SDS011;62866;55.776;37.496;2023-04-25T11:13:55;3.92;;;2.13;;
54805;SDS011;62866;55.776;37.496;2023-04-25T11:16:20;3.15;;;2.35;;
54805;SDS011;62866;55.776;37.496;2023-04-25T11:18:50;3.97;;;2.08;;
54805;SDS011;62866;55.776;37.496;2023-04-25T11:21:15;3.88;;;2.50;;
54805;SDS011;62866;55.776;37.496;2023-04-25T11:23:44;3.55;;;1.73;;
54805;SDS011;62866;55.776;37.496;2023-04-25T11:26:11;3.70;;;2.20;;
54805;SDS011;62866;55.776;37.496;2023-04-25T11:28:38;2.28;;;1.65;;
54805;SDS011;62866;55.776;37.496;2023-04-25T11:31:04;6.00;;;2.28;;
54805;SDS011;62866;55.776;37.496;2023-04-25T11:33:29;5.43;;;2.25;;
54805;SDS011;62866;55.776;37.496;2023-04-25T11:35:55;3.63;;;2.20;;
54805;SDS011;62866;55.776;37.496;2023-04-25T11:38:22;3.80;;;1.90;;
54805;SDS011;62866;55.776;37.496;2023-04-25T11:40:50;6.30;;;1.83;;
54805;SDS011;62866;55.776;37.496;2023-04-25T11:43:17;4.70;;;2.20;;
54805;SDS011;62866;55.776;37.496;2023-04-25T11:45:48;2.03;;;1.45;;
54805;SDS011;62866;55.776;37.496;2023-04-25T11:48:15;8.80;;;2.38;;
54805;SDS011;62866;55.776;37.496;2023-04-25T11:50:41;6.00;;;2.30;;
54805;SDS011;62866;55.776;37.496;2023-04-25T11:53:07;6.07;;;2.40;;
54805;SDS011;62866;55.776;37.496;2023-04-25T11:55:33;4.30;;;2.55;;
54805;SDS011;62866;55.776;37.496;2023-04-25T11:57:59;3.05;;;2.33;;
54805;SDS011;62866;55.776;37.496;2023-04-25T12:00:26;2.95;;;2.00;;
54805;SDS011;62866;55.776;37.496;2023-04-25T12:02:52;4.63;;;2.85;;
54805;SDS011;62866;55.776;37.496;2023-04-25T12:05:23;1.58;;;1.38;;
54805;SDS011;62866;55.776;37.496;2023-04-25T12:07:50;4.47;;;1.67;;
54805;SDS011;62866;55.776;37.496;2023-04-25T12:10:16;3.10;;;2.08;;
54805;SDS011;62866;55.776;37.496;2023-04-25T12:12:43;2.40;;;1.60;;
54805;SDS011;62866;55.776;37.496;2023-04-25T12:17:36;4.20;;;2.47;;
54805;SDS011;62866;55.776;37.496;2023-04-25T12:20:11;3.90;;;2.33;;
54805;SDS011;62866;55.776;37.496;2023-04-25T12:22:42;5.75;;;2.20;;
54805;SDS011;62866;55.776;37.496;2023-04-25T12:25:10;5.35;;;2.25;;
54805;SDS011;62866;55.776;37.496;2023-04-25T12:27:37;3.65;;;2.00;;
54805;SDS011;62866;55.776;37.496;2023-04-25T12:30:03;2.88;;;1.77;;
54805;SDS011;62866;55.776;37.496;2023-04-25T12:32:30;7.30;;;2.20;;
54805;SDS011;62866;55.776;37.496;2023-04-25T12:34:55;3.40;;;2.25;;
54805;SDS011;62866;55.776;37.496;2023-04-25T12:37:21;3.95;;;2.35;;
54805;SDS011;62866;55.776;37.496;2023-04-25T12:39:47;7.63;;;2.72;;
54805;SDS011;62866;55.776;37.496;2023-04-25T12:42:12;3.05;;;2.20;;
54805;SDS011;62866;55.776;37.496;2023-04-25T12:44:38;8.75;;;2.40;;
54805;SDS011;62866;55.776;37.496;2023-04-25T12:47:03;3.30;;;1.35;;
54805;SDS011;62866;55.776;37.496;2023-04-25T12:49:30;7.07;;;3.30;;
54805;SDS011;62866;55.776;37.496;2023-04-25T12:51:55;6.13;;;2.70;;
54805;SDS011;62866;55.776;37.496;2023-04-25T12:54:21;4.65;;;2.13;;
54805;SDS011;62866;55.776;37.496;2023-04-25T12:56:46;3.75;;;2.28;;
54805;SDS011;62866;55.776;37.496;2023-04-25T12:59:12;5.20;;;1.60;;
54805;SDS011;62866;55.776;37.496;2023-04-25T13:01:38;2.72;;;2.00;;
54805;SDS011;62866;55.776;37.496;2023-04-25T13:04:04;6.97;;;2.10;;
54805;SDS011;62866;55.776;37.496;2023-04-25T13:06:30;3.83;;;2.10;;
54805;SDS011;62866;55.776;37.496;2023-04-25T13:08:55;7.72;;;3.10;;
54805;SDS011;62866;55.776;37.496;2023-04-25T13:11:21;6.38;;;2.60;;
54805;SDS011;62866;55.776;37.496;2023-04-25T13:13:47;5.90;;;1.98;;
54805;SDS011;62866;55.776;37.496;2023-04-25T13:16:12;4.05;;;2.20;;
54805;SDS011;62866;55.776;37.496;2023-04-25T13:18:41;3.90;;;2.00;;
54805;SDS011;62866;55.776;37.496;2023-04-25T13:21:07;3.38;;;2.38;;
54805;SDS011;62866;55.776;37.496;2023-04-25T13:23:35;4.75;;;2.00;;
54805;SDS011;62866;55.776;37.496;2023-04-25T13:26:01;5.10;;;2.13;;
54805;SDS011;62866;55.776;37.496;2023-04-25T13:28:27;2.10;;;1.70;;
54805;SDS011;62866;55.776;37.496;2023-04-25T13:30:53;10.73;;;2.95;;
54805;SDS011;62866;55.776;37.496;2023-04-25T13:33:19;5.28;;;2.05;;
54805;SDS011;62866;55.776;37.496;2023-04-25T13:35:45;2.17;;;1.58;;
54805;SDS011;62866;55.776;37.496;2023-04-25T13:38:18;7.05;;;2.47;;
54805;SDS011;62866;55.776;37.496;2023-04-25T13:40:47;7.38;;;1.80;;
54805;SDS011;62866;55.776;37.496;2023-04-25T13:43:13;5.47;;;1.83;;
54805;SDS011;62866;55.776;37.496;2023-04-25T13:45:39;5.40;;;1.90;;
54805;SDS011;62866;55.776;37.496;2023-04-25T13:48:04;7.45;;;2.00;;
54805;SDS011;62866;55.776;37.496;2023-04-25T13:50:30;3.78;;;2.10;;
54805;SDS011;62866;55.776;37.496;2023-04-25T13:52:56;3.90;;;1.90;;
54805;SDS011;62866;55.776;37.496;2023-04-25T13:55:22;1.92;;;1.17;;
54805;SDS011;62866;55.776;37.496;2023-04-25T13:57:47;10.45;;;3.45;;
54805;SDS011;62866;55.776;37.496;2023-04-25T14:00:13;2.03;;;1.50;;
54805;SDS011;62866;55.776;37.496;2023-04-25T14:02:39;3.92;;;1.75;;
54805;SDS011;62866;55.776;37.496;2023-04-25T14:05:05;5.32;;;2.40;;
54805;SDS011;62866;55.776;37.496;2023-04-25T14:07:32;7.35;;;1.95;;
54805;SDS011;62866;55.776;37.496;2023-04-25T14:10:00;4.30;;;2.45;;
54805;SDS011;62866;55.776;37.496;2023-04-25T14:12:26;4.57;;;2.30;;
54805;SDS011;62866;55.776;37.496;2023-04-25T14:14:51;5.95;;;2.20;;
54805;SDS011;62866;55.776;37.496;2023-04-25T14:17:20;3.75;;;1.95;;
54805;SDS011;62866;55.776;37.496;2023-04-25T14:19:46;3.97;;;2.67;;
54805;SDS011;62866;55.776;37.496;2023-04-25T14:22:13;4.28;;;1.77;;
54805;SDS011;62866;55.776;37.496;2023-04-25T14:24:40;3.88;;;2.00;;
54805;SDS011;62866;55.776;37.496;2023-04-25T14:27:06;2.38;;;1.73;;
54805;SDS011;62866;55.776;37.496;2023-04-25T14:29:31;4.82;;;2.40;;
54805;SDS011;62866;55.776;37.496;2023-04-25T14:31:57;5.20;;;2.25;;
54805;SDS011;62866;55.776;37.496;2023-04-25T14:34:24;7.55;;;2.67;;
54805;SDS011;62866;55.776;37.496;2023-04-25T14:36:50;2.67;;;2.20;;
54805;SDS011;62866;55.776;37.496;2023-04-25T14:39:17;6.07;;;2.03;;
54805;SDS011;62866;55.776;37.496;2023-04-25T14:41:43;3.10;;;2.50;;